Time;durP1;ratioP1;P1;durP2;ratioP2;P2;SDS_P1;SDS_P2;PMS_P1;PMS_P2;Temp;Humidity;BMP_temperature;BMP_pressure;BME280_temperature;BME280_humidity;BME280_pressure;Samples;Min_cycle;Max_cycle;Signal;HPM_P1;HPM_P2
2021/04/19 00:00:19;;;;;;;9.27;4.57;;;11.60;99.90;;;;;;4164723;28;20567;-66
2021/04/19 00:02:20;;;;;;;9.98;4.55;;;11.60;99.90;;;;;;4162865;28;20044;-66
2021/04/19 00:04:20;;;;;;;9.30;4.45;;;11.50;99.90;;;;;;4160110;28;20033;-66
2021/04/19 00:06:21;;;;;;;7.18;4.78;;;11.50;99.90;;;;;;4160029;28;20029;-66
2021/04/19 00:08:22;;;;;;;10.15;4.53;;;11.50;99.90;;;;;;4162088;28;20030;-66
2021/04/19 00:10:24;;;;;;;10.88;5.32;;;11.50;99.90;;;;;;4160347;28;20160;-66
2021/04/19 00:12:24;;;;;;;9.53;4.77;;;11.40;99.90;;;;;;4159863;28;20079;-66
2021/04/19 00:14:25;;;;;;;8.85;5.13;;;11.40;99.90;;;;;;4159584;28;20030;-66
2021/04/19 00:16:25;;;;;;;9.20;4.40;;;11.30;99.90;;;;;;4199497;28;20400;-66
2021/04/19 00:18:26;;;;;;;10.82;5.28;;;11.30;99.90;;;;;;4159818;28;20124;-66
2021/04/19 00:20:27;;;;;;;8.07;4.93;;;11.30;99.90;;;;;;4160405;28;20112;-66
2021/04/19 00:22:27;;;;;;;7.97;4.88;;;11.30;99.90;;;;;;4159934;28;20036;-66
2021/04/19 00:24:28;;;;;;;10.40;4.80;;;11.20;99.90;;;;;;4165482;28;20029;-66
2021/04/19 00:26:29;;;;;;;12.38;5.38;;;11.20;99.90;;;;;;4160286;28;20088;-66
2021/04/19 00:28:30;;;;;;;10.13;4.75;;;11.20;99.90;;;;;;4185434;28;20154;-66
2021/04/19 00:30:30;;;;;;;9.35;5.00;;;11.20;99.90;;;;;;4174018;28;20040;-66
2021/04/19 00:32:31;;;;;;;6.55;4.40;;;11.20;99.90;;;;;;4159956;28;20047;-66
2021/04/19 00:34:32;;;;;;;11.90;4.28;;;11.20;99.90;;;;;;4158186;28;20116;-66
2021/04/19 00:36:32;;;;;;;11.68;4.72;;;11.20;99.90;;;;;;4160071;28;20110;-66
2021/04/19 00:38:33;;;;;;;9.45;5.05;;;11.10;99.90;;;;;;4159317;28;20041;-66
2021/04/19 00:40:36;;;;;;;10.65;4.72;;;11.10;99.90;;;;;;4185828;28;20086;-65
2021/04/19 00:42:36;;;;;;;;;;;11.00;99.90;;;;;;4188180;28;20028;-66
2021/04/19 00:44:37;;;;;;;6.38;4.13;;;11.00;99.90;;;;;;4159277;28;19983;-66
2021/04/19 00:46:38;;;;;;;6.78;4.22;;;10.90;99.90;;;;;;4159451;28;20091;-66
2021/04/19 00:48:39;;;;;;;8.23;4.53;;;10.90;99.90;;;;;;4159657;28;20041;-66
2021/04/19 00:50:39;;;;;;;15.90;4.88;;;10.90;99.90;;;;;;4159757;28;20548;-66
2021/04/19 00:52:40;;;;;;;7.75;4.55;;;10.90;99.90;;;;;;4160393;28;20033;-66
2021/04/19 00:54:41;;;;;;;10.35;4.97;;;10.80;99.90;;;;;;4160677;28;20053;-66
2021/04/19 00:56:42;;;;;;;10.75;4.68;;;10.80;99.90;;;;;;4159643;28;20045;-66
2021/04/19 00:58:45;;;;;;;8.07;4.57;;;10.70;99.90;;;;;;4163444;28;20615;-66
2021/04/19 01:00:46;;;;;;;8.05;5.03;;;10.70;99.90;;;;;;4159186;28;20037;-66
2021/04/19 01:02:47;;;;;;;10.93;4.18;;;10.70;99.90;;;;;;4159665;28;20045;-66
2021/04/19 01:04:47;;;;;;;8.18;4.63;;;10.70;99.90;;;;;;4184895;28;20102;-66
2021/04/19 01:06:50;;;;;;;9.07;4.50;;;10.60;99.90;;;;;;4174371;28;20493;-66
2021/04/19 01:08:50;;;;;;;9.23;4.35;;;10.60;99.90;;;;;;4159075;28;20112;-66
2021/04/19 01:10:51;;;;;;;9.55;4.72;;;10.60;99.90;;;;;;4159728;28;20041;-66
2021/04/19 01:12:52;;;;;;;6.45;4.22;;;10.60;99.90;;;;;;4158037;28;20120;-66
2021/04/19 01:14:52;;;;;;;9.02;4.70;;;10.60;99.90;;;;;;4159131;28;20040;-66
2021/04/19 01:16:53;;;;;;;7.63;4.45;;;10.60;99.90;;;;;;4159952;28;20029;-66
2021/04/19 01:18:54;;;;;;;9.15;4.78;;;10.60;99.90;;;;;;4159310;28;20135;-66
2021/04/19 01:20:54;;;;;;;7.22;4.32;;;10.60;99.90;;;;;;4158709;28;20479;-66
2021/04/19 01:22:55;;;;;;;8.10;4.47;;;10.60;99.90;;;;;;4157813;28;20037;-66
2021/04/19 01:24:56;;;;;;;7.35;4.55;;;10.60;99.90;;;;;;4158637;28;20662;-66
2021/04/19 01:26:56;;;;;;;6.88;4.30;;;10.70;99.90;;;;;;4158332;28;20030;-66
2021/04/19 01:28:57;;;;;;;8.38;4.53;;;10.70;99.90;;;;;;4158906;28;20044;-66
2021/04/19 01:30:58;;;;;;;8.13;4.95;;;10.60;99.90;;;;;;4158487;28;20040;-66
2021/04/19 01:32:59;;;;;;;7.93;4.75;;;10.70;99.90;;;;;;4158773;28;20100;-66
2021/04/19 01:35:00;;;;;;;8.02;4.45;;;10.70;99.90;;;;;;4158236;28;20037;-66
2021/04/19 01:37:01;;;;;;;7.82;4.88;;;10.70;99.90;;;;;;4183583;28;20036;-66
2021/04/19 01:39:03;;;;;;;9.25;4.88;;;10.70;99.90;;;;;;4158263;28;20055;-66
2021/04/19 01:41:04;;;;;;;6.75;3.97;;;10.70;99.90;;;;;;4158543;28;20034;-66
2021/04/19 01:43:05;;;;;;;8.00;4.43;;;10.70;99.90;;;;;;4158944;28;20541;-66
2021/04/19 01:45:07;;;;;;;8.32;4.75;;;10.70;99.90;;;;;;4160231;28;20029;-66
2021/04/19 01:47:08;;;;;;;8.82;4.72;;;10.70;99.90;;;;;;4160033;28;20056;-66
2021/04/19 01:49:16;;;;;;;12.68;5.20;;;10.60;99.90;;;;;;4158828;28;20037;-66
2021/04/19 01:51:16;;;;;;;10.40;5.28;;;10.60;99.90;;;;;;4158220;28;20030;-66
2021/04/19 01:53:18;;;;;;;8.40;4.70;;;10.60;99.90;;;;;;4158680;28;20094;-66
2021/04/19 01:55:20;;;;;;;8.35;4.45;;;10.60;99.90;;;;;;4176298;28;20044;-66
2021/04/19 01:57:21;;;;;;;11.23;4.78;;;10.50;99.90;;;;;;4158622;28;20040;-66
2021/04/19 01:59:23;;;;;;;8.07;4.47;;;10.50;99.90;;;;;;4158628;28;20678;-66
2021/04/19 02:01:24;;;;;;;6.88;4.80;;;10.60;99.90;;;;;;4158337;28;20029;-66
2021/04/19 02:03:47;;;;;;;6.88;4.25;;;10.50;99.90;;;;;;4160665;28;20611;-66
2021/04/19 02:06:24;;;;;;;8.02;4.65;;;10.50;99.90;;;;;;4158207;28;20037;-66
2021/04/19 02:08:27;;;;;;;7.15;4.20;;;10.50;99.90;;;;;;4155985;28;20136;-66
2021/04/19 02:10:57;;;;;;;10.02;4.95;;;10.60;99.90;;;;;;4158113;28;20029;-66
2021/04/19 02:13:02;;;;;;;9.02;4.55;;;10.50;99.90;;;;;;4157801;28;20038;-66
2021/04/19 02:15:06;;;;;;;10.90;4.75;;;10.60;99.90;;;;;;4153828;28;20037;-66
2021/04/19 02:17:48;;;;;;;7.57;4.80;;;10.60;99.90;;;;;;4158668;28;20049;-66
2021/04/19 02:20:12;;;;;;;7.78;4.97;;;10.60;99.90;;;;;;4158600;28;20048;-66
2021/04/19 02:22:25;;;;;;;8.27;4.43;;;10.60;99.90;;;;;;4157162;28;20037;-66
2021/04/19 02:24:29;;;;;;;7.65;4.35;;;10.60;99.90;;;;;;4154791;28;20960;-67
2021/04/19 02:26:33;;;;;;;9.07;5.15;;;10.60;99.90;;;;;;4157858;28;20469;-66
2021/04/19 02:28:39;;;;;;;6.80;4.50;;;10.60;99.90;;;;;;4157335;28;20439;-66
2021/04/19 02:30:42;;;;;;;7.05;4.50;;;10.70;99.90;;;;;;4157128;28;20473;-66
2021/04/19 02:32:49;;;;;;;8.00;4.85;;;10.60;99.90;;;;;;4157244;28;20033;-67
2021/04/19 02:34:56;;;;;;;8.52;4.82;;;10.60;99.90;;;;;;4157627;28;20030;-66
2021/04/19 02:36:58;;;;;;;7.78;4.95;;;10.60;99.90;;;;;;4158042;28;20034;-66
2021/04/19 02:39:00;;;;;;;10.90;4.97;;;10.60;99.90;;;;;;4157517;28;20029;-66
2021/04/19 02:41:03;;;;;;;11.00;5.38;;;10.60;99.90;;;;;;4157785;28;20424;-66
2021/04/19 02:43:07;;;;;;;8.48;4.75;;;10.70;99.90;;;;;;4157863;28;20589;-66
2021/04/19 02:45:09;;;;;;;7.35;4.43;;;10.60;99.90;;;;;;4157401;28;20030;-66
2021/04/19 02:47:10;;;;;;;;;;;10.70;99.90;;;;;;4158049;28;20429;-66
2021/04/19 02:49:11;;;;;;;12.85;5.20;;;10.70;99.90;;;;;;4157694;28;19915;-66
2021/04/19 02:51:14;;;;;;;9.27;5.25;;;10.60;99.90;;;;;;4157674;28;20030;-66
2021/04/19 02:53:15;;;;;;;;;;;10.70;99.90;;;;;;4157800;28;20168;-66
2021/04/19 02:55:23;;;;;;;9.98;4.68;;;10.70;99.90;;;;;;4157513;28;20045;-67
2021/04/19 02:57:26;;;;;;;8.88;4.97;;;10.60;99.90;;;;;;4161275;28;20029;-66
2021/04/19 02:59:30;;;;;;;8.20;5.03;;;10.60;99.90;;;;;;4184025;28;20048;-66
2021/04/19 03:01:33;;;;;;;10.00;5.00;;;10.70;99.90;;;;;;4157690;28;20041;-66
2021/04/19 03:03:36;;;;;;;7.45;5.05;;;10.60;99.90;;;;;;4157201;28;20926;-66
2021/04/19 03:05:37;;;;;;;;;;;10.70;99.90;;;;;;4157597;28;20640;-66
2021/04/19 03:07:48;;;;;;;8.88;5.10;;;10.60;99.90;;;;;;4157703;28;19917;-66
2021/04/19 03:09:53;;;;;;;6.90;5.20;;;10.70;99.90;;;;;;4157376;28;20076;-67
2021/04/19 03:12:03;;;;;;;9.20;5.28;;;10.60;99.90;;;;;;4157258;28;20549;-66
2021/04/19 03:14:06;;;;;;;9.20;5.00;;;10.60;99.90;;;;;;4156930;28;20470;-66
2021/04/19 03:16:07;;;;;;;8.02;5.05;;;10.60;99.90;;;;;;4157398;28;20488;-66
2021/04/19 03:18:12;;;;;;;10.25;5.45;;;10.60;99.90;;;;;;4157407;28;20041;-66
2021/04/19 03:20:22;;;;;;;9.00;5.72;;;10.60;99.90;;;;;;4140650;28;20034;-66
2021/04/19 03:22:25;;;;;;;7.90;5.07;;;10.60;99.90;;;;;;4156363;28;20041;-66
2021/04/19 03:24:28;;;;;;;10.32;6.25;;;10.60;99.90;;;;;;4157467;28;20662;-66
2021/04/19 03:26:32;;;;;;;9.00;5.68;;;10.60;99.90;;;;;;4159646;28;20039;-66
2021/04/19 03:28:35;;;;;;;9.13;5.35;;;10.60;99.90;;;;;;4157454;28;20152;-66
2021/04/19 03:30:35;;;;;;;11.05;6.30;;;10.60;99.90;;;;;;4157523;28;20052;-66
2021/04/19 03:32:41;;;;;;;9.98;5.88;;;10.60;99.90;;;;;;4156899;28;20033;-66
2021/04/19 03:34:44;;;;;;;9.93;5.97;;;10.60;99.90;;;;;;4153304;28;20033;-66
2021/04/19 03:36:47;;;;;;;8.93;5.55;;;10.60;99.90;;;;;;4157222;28;20044;-66
2021/04/19 03:38:49;;;;;;;10.75;5.78;;;10.60;99.90;;;;;;4156702;28;20045;-66
2021/04/19 03:40:51;;;;;;;9.52;6.28;;;10.60;99.90;;;;;;4157070;28;20029;-66
2021/04/19 03:42:56;;;;;;;10.55;5.43;;;10.60;99.90;;;;;;4157474;28;20044;-66
2021/04/19 03:44:59;;;;;;;8.95;5.78;;;10.60;99.90;;;;;;4156917;28;20033;-66
2021/04/19 03:47:02;;;;;;;13.50;6.53;;;10.60;99.90;;;;;;4153357;28;20037;-66
2021/04/19 03:49:04;;;;;;;;;;;10.50;99.90;;;;;;4158015;28;20030;-66
2021/04/19 03:51:08;;;;;;;10.50;6.07;;;10.50;99.90;;;;;;4157337;28;19952;-66
2021/04/19 03:53:09;;;;;;;10.07;6.25;;;10.40;99.90;;;;;;4157518;28;20637;-66
2021/04/19 03:55:13;;;;;;;11.85;6.30;;;10.40;99.90;;;;;;4157012;28;20036;-66
2021/04/19 03:57:18;;;;;;;8.93;6.00;;;10.40;99.90;;;;;;4156889;28;20045;-66
2021/04/19 03:59:20;;;;;;;8.63;5.82;;;10.40;99.90;;;;;;4157121;28;20037;-66
2021/04/19 04:01:21;;;;;;;9.55;5.60;;;10.40;99.90;;;;;;4157066;28;20079;-67
2021/04/19 04:03:24;;;;;;;11.05;5.93;;;10.40;99.90;;;;;;4156608;28;20454;-66
2021/04/19 04:05:25;;;;;;;8.65;5.22;;;10.40;99.90;;;;;;4156993;28;20355;-66
2021/04/19 04:07:27;;;;;;;9.27;6.07;;;10.50;99.90;;;;;;4155474;28;20037;-66
2021/04/19 04:09:29;;;;;;;7.45;5.28;;;10.50;99.90;;;;;;4155707;28;20045;-67
2021/04/19 04:11:30;;;;;;;10.13;6.35;;;10.50;99.90;;;;;;4156869;28;20026;-66
2021/04/19 04:13:33;;;;;;;12.57;6.38;;;10.50;99.90;;;;;;4157002;28;20472;-66
2021/04/19 04:15:33;;;;;;;10.63;6.35;;;10.50;99.90;;;;;;4152924;28;20049;-66
2021/04/19 04:17:34;;;;;;;10.90;6.05;;;10.40;99.90;;;;;;4158417;28;20030;-66
2021/04/19 04:19:34;;;;;;;10.80;6.20;;;10.40;99.90;;;;;;4159190;28;20132;-66
2021/04/19 04:21:36;;;;;;;10.55;6.20;;;10.40;99.90;;;;;;4158672;28;20840;-66
2021/04/19 04:23:37;;;;;;;11.90;6.50;;;10.50;99.90;;;;;;4158636;28;20151;-66
2021/04/19 04:25:39;;;;;;;8.85;6.03;;;10.50;99.90;;;;;;4159468;28;20740;-66
2021/04/19 04:27:40;;;;;;;12.23;6.88;;;10.50;99.90;;;;;;4159822;28;20033;-66
2021/04/19 04:29:40;;;;;;;12.90;7.43;;;10.50;99.90;;;;;;4160409;28;20080;-66
2021/04/19 04:31:41;;;;;;;11.15;6.70;;;10.50;99.90;;;;;;4159842;28;20037;-66
2021/04/19 04:33:41;;;;;;;9.52;6.38;;;10.50;99.90;;;;;;4158623;28;20121;-66
2021/04/19 04:35:42;;;;;;;11.27;6.90;;;10.40;99.90;;;;;;4156090;28;20064;-66
2021/04/19 04:37:43;;;;;;;13.45;7.30;;;10.40;99.90;;;;;;4141627;28;20757;-66
2021/04/19 04:39:43;;;;;;;9.15;6.35;;;10.30;99.90;;;;;;4161107;28;20133;-66
2021/04/19 04:41:44;;;;;;;12.73;7.22;;;10.30;99.90;;;;;;4159235;28;20038;-66
2021/04/19 04:43:47;;;;;;;9.88;6.68;;;10.30;99.90;;;;;;4181929;28;20037;-66
2021/04/19 04:45:49;;;;;;;8.93;5.88;;;10.30;99.90;;;;;;4159458;28;20148;-66
2021/04/19 04:48:23;;;;;;;10.77;6.10;;;10.30;99.90;;;;;;4157685;28;20041;-67
2021/04/19 04:50:26;;;;;;;;;;;10.30;99.90;;;;;;4155172;28;20034;-66
2021/04/19 04:52:29;;;;;;;10.30;6.03;;;10.40;99.90;;;;;;4159423;28;19920;-66
2021/04/19 04:54:31;;;;;;;9.98;6.53;;;10.30;99.90;;;;;;4158104;28;20040;-66
2021/04/19 04:56:34;;;;;;;9.18;6.38;;;10.30;99.90;;;;;;4156564;28;20484;-66
2021/04/19 04:58:38;;;;;;;12.18;7.03;;;10.30;99.90;;;;;;4157855;28;20046;-66
2021/04/19 05:00:40;;;;;;;10.95;6.43;;;10.30;99.90;;;;;;4158890;28;20453;-66
2021/04/19 05:02:43;;;;;;;9.90;6.78;;;10.40;99.90;;;;;;4158881;28;20072;-67
2021/04/19 05:04:43;;;;;;;10.63;6.65;;;10.40;99.90;;;;;;4157602;28;20060;-66
2021/04/19 05:06:45;;;;;;;9.93;6.30;;;10.40;99.90;;;;;;4158925;28;20109;-66
2021/04/19 05:08:47;;;;;;;11.63;7.15;;;10.40;99.90;;;;;;4159050;28;20095;-66
2021/04/19 05:10:49;;;;;;;11.70;6.80;;;10.40;99.90;;;;;;4157188;28;20064;-66
2021/04/19 05:12:49;;;;;;;11.15;6.53;;;10.40;99.90;;;;;;4159287;28;20033;-66
2021/04/19 05:15:02;;;;;;;11.88;7.43;;;10.50;99.90;;;;;;4159030;28;20048;-66
2021/04/19 05:17:03;;;;;;;13.07;7.43;;;10.50;99.90;;;;;;4156640;28;20034;-66
2021/04/19 05:19:06;;;;;;;12.02;7.30;;;10.50;99.90;;;;;;4157953;28;20049;-66
2021/04/19 05:21:06;;;;;;;11.00;7.40;;;10.50;99.90;;;;;;4161152;28;20029;-66
2021/04/19 05:23:07;;;;;;;15.25;7.72;;;10.40;99.90;;;;;;4148401;28;20454;-66
2021/04/19 05:25:09;;;;;;;11.40;7.22;;;10.40;99.90;;;;;;4159288;28;20129;-66
2021/04/19 05:27:12;;;;;;;11.98;7.43;;;10.30;99.90;;;;;;4158874;28;20064;-66
2021/04/19 05:29:13;;;;;;;13.55;8.35;;;10.30;99.90;;;;;;4158733;28;20139;-66
2021/04/19 05:31:14;;;;;;;15.15;8.52;;;10.30;99.90;;;;;;4158547;28;20034;-66
2021/04/19 05:33:16;;;;;;;13.68;8.18;;;10.20;99.90;;;;;;4159069;28;20059;-66
2021/04/19 05:35:17;;;;;;;17.35;8.20;;;10.20;99.90;;;;;;4159289;28;20044;-67
2021/04/19 05:37:18;;;;;;;14.40;8.45;;;10.10;99.90;;;;;;4155521;28;20026;-66
2021/04/19 05:39:20;;;;;;;11.73;8.18;;;10.10;99.90;;;;;;4158197;28;20040;-66
2021/04/19 05:41:22;;;;;;;14.73;8.82;;;10.10;99.90;;;;;;4158097;28;20045;-66
2021/04/19 05:43:22;;;;;;;10.97;8.27;;;10.10;99.90;;;;;;4157627;28;20040;-66
2021/04/19 05:45:24;;;;;;;14.93;8.55;;;10.10;99.90;;;;;;4157328;28;20252;-66
2021/04/19 05:47:25;;;;;;;14.80;8.60;;;10.20;99.90;;;;;;4156588;28;20038;-66
2021/04/19 05:49:26;;;;;;;15.55;8.95;;;10.20;99.90;;;;;;4153260;28;20153;-66
2021/04/19 05:51:41;;;;;;;16.83;9.13;;;10.20;99.90;;;;;;4153380;28;20056;-66
2021/04/19 05:53:41;;;;;;;13.15;8.80;;;10.20;99.90;;;;;;4156410;28;20100;-66
2021/04/19 05:55:43;;;;;;;15.95;10.20;;;10.20;99.90;;;;;;4154002;28;20505;-66
2021/04/19 05:58:14;;;;;;;14.88;10.02;;;10.10;99.90;;;;;;4172808;28;20612;-66
2021/04/19 06:00:34;;;;;;;13.50;9.23;;;10.10;99.90;;;;;;4154180;28;20087;-66
2021/04/19 06:02:56;;;;;;;15.43;9.25;;;10.10;99.90;;;;;;4156756;28;20033;-66
2021/04/19 06:05:06;;;;;;;11.60;8.67;;;10.10;99.90;;;;;;4156660;28;20053;-66
2021/04/19 06:07:29;;;;;;;13.05;9.25;;;10.20;99.90;;;;;;4157445;28;20042;-66
2021/04/19 06:09:36;;;;;;;16.48;9.60;;;10.20;99.90;;;;;;4156982;28;20377;-66
2021/04/19 06:11:54;;;;;;;13.55;8.43;;;10.20;99.90;;;;;;4156911;28;20052;-66
2021/04/19 06:13:56;;;;;;;12.40;9.00;;;10.20;99.90;;;;;;4179545;28;20041;-66
2021/04/19 06:16:00;;;;;;;16.40;9.30;;;10.20;99.90;;;;;;4183011;28;20040;-66
2021/04/19 06:18:01;;;;;;;13.98;9.60;;;10.20;99.90;;;;;;4156121;28;21433;-66
2021/04/19 06:20:03;;;;;;;13.95;9.13;;;10.30;99.90;;;;;;4157556;28;20037;-66
2021/04/19 06:22:05;;;;;;;13.95;8.98;;;10.30;99.90;;;;;;4156634;28;20053;-67
2021/04/19 06:24:07;;;;;;;15.57;9.80;;;10.30;99.90;;;;;;4157008;28;20474;-66
2021/04/19 06:26:08;;;;;;;14.23;9.47;;;10.40;99.90;;;;;;4157639;28;20045;-66
2021/04/19 06:28:09;;;;;;;13.05;9.20;;;10.40;99.90;;;;;;4171568;28;20607;-66
2021/04/19 06:30:18;;;;;;;17.33;10.07;;;10.50;99.90;;;;;;4157941;28;20049;-66
2021/04/19 06:32:23;;;;;;;16.23;10.10;;;10.50;99.90;;;;;;4153093;28;20035;-66
2021/04/19 06:34:24;;;;;;;12.52;9.30;;;10.50;99.90;;;;;;4156628;28;20040;-66
2021/04/19 06:36:24;;;;;;;13.90;10.35;;;10.50;99.90;;;;;;4153911;28;20537;-66
2021/04/19 06:38:25;;;;;;;16.83;9.68;;;10.60;99.90;;;;;;4154624;28;20045;-66
2021/04/19 06:40:26;;;;;;;15.52;10.60;;;10.60;99.90;;;;;;4154379;28;20425;-66
2021/04/19 06:42:28;;;;;;;16.15;11.02;;;10.60;99.90;;;;;;4154906;28;20053;-66
2021/04/19 06:44:29;;;;;;;16.27;10.40;;;10.60;99.90;;;;;;4154950;28;20504;-66
2021/04/19 06:46:32;;;;;;;15.60;10.60;;;10.60;99.90;;;;;;4156725;28;20756;-66
2021/04/19 06:48:33;;;;;;;17.55;10.85;;;10.60;99.90;;;;;;4155657;28;20092;-66
2021/04/19 06:50:34;;;;;;;15.30;10.82;;;10.60;99.90;;;;;;4155418;28;20045;-66
2021/04/19 06:52:36;;;;;;;14.73;9.98;;;10.60;99.90;;;;;;4155540;28;20030;-66
2021/04/19 06:54:38;;;;;;;14.48;10.55;;;10.60;99.90;;;;;;4155226;28;20041;-66
2021/04/19 06:56:43;;;;;;;13.25;9.57;;;10.60;99.90;;;;;;4153872;28;20080;-66
2021/04/19 06:58:43;;;;;;;16.00;10.73;;;10.60;99.90;;;;;;4155044;28;20045;-66
2021/04/19 07:00:48;;;;;;;17.48;11.70;;;10.60;99.90;;;;;;4155767;28;20050;-66
2021/04/19 07:02:51;;;;;;;15.45;10.88;;;10.70;99.90;;;;;;4154586;28;20390;-66
2021/04/19 07:04:53;;;;;;;16.40;11.35;;;10.70;99.90;;;;;;4154164;28;20068;-66
2021/04/19 07:06:55;;;;;;;16.40;10.93;;;10.70;99.90;;;;;;4155452;28;20038;-66
2021/04/19 07:09:05;;;;;;;15.93;11.73;;;10.70;99.90;;;;;;4155882;28;20045;-67
2021/04/19 07:11:08;;;;;;;17.33;11.15;;;10.70;99.90;;;;;;4154816;28;20039;-66
2021/04/19 07:13:12;;;;;;;18.80;11.75;;;10.80;99.90;;;;;;4155353;28;20033;-66
2021/04/19 07:15:16;;;;;;;17.73;11.63;;;10.80;99.90;;;;;;4151845;28;20396;-66
2021/04/19 07:17:17;;;;;;;16.67;11.70;;;10.80;99.90;;;;;;4155267;28;20030;-66
2021/04/19 07:19:19;;;;;;;17.95;12.65;;;10.80;99.90;;;;;;4153858;28;20033;-66
2021/04/19 07:21:19;;;;;;;18.70;13.15;;;10.80;99.90;;;;;;4155237;28;20037;-66
2021/04/19 07:23:21;;;;;;;18.75;12.88;;;10.80;99.90;;;;;;4154808;28;20030;-66
2021/04/19 07:25:21;;;;;;;20.83;13.38;;;10.80;99.90;;;;;;4153999;28;20040;-66
2021/04/19 07:27:22;;;;;;;20.92;13.18;;;10.80;99.90;;;;;;4153126;28;20794;-66
2021/04/19 07:29:24;;;;;;;16.98;12.45;;;10.90;99.90;;;;;;4153606;28;20033;-66
2021/04/19 07:31:25;;;;;;;17.35;12.02;;;10.80;99.90;;;;;;4149639;28;20096;-66
2021/04/19 07:33:35;;;;;;;21.63;14.50;;;10.80;99.90;;;;;;4155314;28;20029;-66
2021/04/19 07:35:36;;;;;;;18.23;12.77;;;10.80;99.90;;;;;;4167017;28;20041;-66
2021/04/19 07:37:37;;;;;;;19.98;13.32;;;10.80;99.90;;;;;;4148262;28;20034;-66
2021/04/19 07:39:39;;;;;;;19.60;13.85;;;10.80;99.90;;;;;;4153470;28;20037;-66
2021/04/19 07:41:43;;;;;;;20.50;13.65;;;10.80;99.90;;;;;;4153987;28;20029;-66
2021/04/19 07:43:48;;;;;;;19.60;13.80;;;10.80;99.90;;;;;;4165570;28;20521;-66
2021/04/19 07:46:11;;;;;;;19.02;14.02;;;10.80;99.90;;;;;;4150986;28;20456;-66
2021/04/19 07:48:32;;;;;;;19.63;13.70;;;10.90;99.90;;;;;;4179510;28;20029;-66
2021/04/19 07:50:33;;;;;;;18.90;12.68;;;10.90;99.90;;;;;;4155324;28;20490;-66
2021/04/19 07:53:08;;;;;;;19.90;13.93;;;10.90;99.90;;;;;;4172508;28;20029;-66
2021/04/19 07:55:17;;;;;;;20.63;14.45;;;10.90;99.90;;;;;;4154503;28;20493;-66
2021/04/19 07:57:22;;;;;;;17.08;11.98;;;10.90;99.90;;;;;;4156729;28;20034;-66
2021/04/19 07:59:31;;;;;;;21.10;14.13;;;10.90;99.90;;;;;;4155355;28;20168;-66
2021/04/19 08:01:33;;;;;;;16.83;12.50;;;10.90;99.90;;;;;;4155938;28;20129;-66
2021/04/19 08:03:39;;;;;;;21.23;13.48;;;11.00;99.90;;;;;;4153955;28;20124;-66
2021/04/19 08:05:49;;;;;;;20.92;13.48;;;11.00;99.90;;;;;;4155775;28;20045;-66
2021/04/19 08:07:53;;;;;;;18.02;12.95;;;11.00;99.90;;;;;;4154310;28;20029;-66
2021/04/19 08:09:58;;;;;;;21.73;13.07;;;11.00;99.90;;;;;;4156811;28;20541;-66
2021/04/19 08:12:09;;;;;;;20.05;13.75;;;11.00;99.90;;;;;;4157446;28;20029;-66
2021/04/19 08:14:09;;;;;;;19.77;14.07;;;11.00;99.90;;;;;;4157029;28;20144;-66
2021/04/19 08:16:18;;;;;;;17.70;13.35;;;11.00;99.90;;;;;;4154278;28;20718;-66
2021/04/19 08:18:19;;;;;;;19.63;13.40;;;11.00;99.90;;;;;;4169685;28;20039;-66
2021/04/19 08:20:20;;;;;;;16.42;12.85;;;11.00;99.90;;;;;;4154842;28;20049;-66
2021/04/19 08:22:28;;;;;;;17.80;12.50;;;11.00;99.90;;;;;;4172225;28;20094;-66
2021/04/19 08:24:29;;;;;;;17.67;13.38;;;11.00;99.90;;;;;;4170448;28;20033;-66
2021/04/19 08:26:50;;;;;;;20.55;15.07;;;11.00;99.90;;;;;;4154232;28;20055;-66
2021/04/19 08:28:51;;;;;;;25.75;16.70;;;11.00;99.90;;;;;;4137976;28;20045;-66
2021/04/19 08:30:55;;;;;;;29.55;19.08;;;11.00;99.90;;;;;;4155428;28;20042;-66
2021/04/19 08:32:57;;;;;;;22.70;16.52;;;10.90;99.90;;;;;;4155335;28;20045;-66
2021/04/19 08:34:59;;;;;;;21.95;16.23;;;10.90;99.90;;;;;;4184043;28;20078;-66
2021/04/19 08:37:01;;;;;;;24.75;18.58;;;10.90;99.90;;;;;;4169639;28;20045;-66
2021/04/19 08:39:02;;;;;;;30.35;20.08;;;10.90;99.90;;;;;;4156731;28;20046;-66
2021/04/19 08:41:03;;;;;;;26.98;18.52;;;10.80;99.90;;;;;;4155635;28;20473;-66
2021/04/19 08:43:08;;;;;;;25.95;18.75;;;10.90;99.90;;;;;;4154344;28;20034;-66
2021/04/19 08:45:10;;;;;;;27.45;19.13;;;10.90;99.90;;;;;;4155870;28;20037;-66
2021/04/19 08:47:17;;;;;;;25.67;18.80;;;10.90;99.90;;;;;;4185576;28;20511;-66
2021/04/19 08:49:17;;;;;;;27.98;20.45;;;10.90;99.90;;;;;;4157322;28;20260;-66
2021/04/19 08:51:18;;;;;;;29.75;21.02;;;10.90;99.90;;;;;;4156677;28;20521;-66
2021/04/19 08:53:20;;;;;;;29.45;19.90;;;10.80;99.90;;;;;;4156580;28;20121;-66
2021/04/19 08:55:22;;;;;;;31.98;21.85;;;10.80;99.90;;;;;;4154701;28;20038;-66
2021/04/19 08:57:23;;;;;;;29.97;21.00;;;10.80;99.90;;;;;;4156913;28;20041;-66
2021/04/19 08:59:24;;;;;;;31.15;20.00;;;10.80;99.90;;;;;;4156788;28;20385;-66
2021/04/19 09:01:28;;;;;;;31.67;21.33;;;10.80;99.90;;;;;;4155602;28;20030;-66
2021/04/19 09:03:29;;;;;;;30.27;19.30;;;10.80;99.90;;;;;;4156662;28;20030;-66
2021/04/19 09:05:29;;;;;;;25.30;16.55;;;10.80;99.90;;;;;;4156628;28;20056;-66
2021/04/19 09:07:31;;;;;;;28.05;17.58;;;10.80;99.90;;;;;;4156480;28;20989;-66
2021/04/19 09:09:32;;;;;;;25.80;17.30;;;10.80;99.90;;;;;;4155604;28;20109;-66
2021/04/19 09:11:32;;;;;;;25.20;15.98;;;10.80;99.90;;;;;;4157258;28;20057;-66
2021/04/19 09:13:35;;;;;;;22.55;14.85;;;10.80;99.90;;;;;;4156007;28;20037;-66
2021/04/19 09:15:36;;;;;;;24.67;16.10;;;10.80;99.90;;;;;;4156283;28;20477;-66
2021/04/19 09:17:40;;;;;;;29.27;17.98;;;10.80;99.90;;;;;;4156116;28;20030;-66
2021/04/19 09:19:42;;;;;;;28.95;18.50;;;10.80;99.90;;;;;;4170654;28;20060;-66
2021/04/19 09:21:48;;;;;;;29.15;18.67;;;10.90;99.90;;;;;;4155458;28;20460;-66
2021/04/19 09:23:55;;;;;;;26.73;17.17;;;10.90;99.90;;;;;;4170172;28;20531;-66
2021/04/19 09:25:57;;;;;;;23.95;15.95;;;10.90;99.90;;;;;;4155119;28;20044;-66
2021/04/19 09:27:57;;;;;;;24.80;15.80;;;10.90;99.90;;;;;;4156393;28;20125;-66
2021/04/19 09:29:58;;;;;;;22.75;15.32;;;10.90;99.90;;;;;;4156315;28;20018;-66
2021/04/19 09:32:09;;;;;;;24.23;15.82;;;10.90;99.90;;;;;;4155601;28;20038;-66
2021/04/19 09:34:13;;;;;;;21.60;14.05;;;11.00;99.90;;;;;;4154512;28;20551;-66
2021/04/19 09:36:14;;;;;;;19.30;13.93;;;11.00;99.90;;;;;;4168556;28;20037;-66
2021/04/19 09:38:40;;;;;;;18.92;13.23;;;11.00;99.90;;;;;;4155309;28;20033;-66
2021/04/19 09:40:50;;;;;;;19.08;13.43;;;11.00;99.90;;;;;;4153987;28;20041;-66
2021/04/19 09:42:54;;;;;;;20.02;12.18;;;11.00;99.90;;;;;;4154345;28;20041;-66
2021/04/19 09:44:55;;;;;;;20.98;12.38;;;11.00;99.90;;;;;;4154331;28;20502;-66
2021/04/19 09:46:56;;;;;;;19.00;12.88;;;11.00;99.90;;;;;;4149825;28;20088;-66
2021/04/19 09:49:03;;;;;;;14.60;10.20;;;11.00;99.90;;;;;;4154053;28;20515;-66
2021/04/19 09:51:17;;;;;;;13.50;9.85;;;11.00;99.90;;;;;;4154575;28;20508;-66
2021/04/19 09:53:18;;;;;;;14.43;10.27;;;11.00;99.90;;;;;;4154314;28;20036;-66
2021/04/19 09:55:22;;;;;;;14.32;9.85;;;11.10;99.90;;;;;;4152674;28;20041;-66
2021/04/19 09:57:23;;;;;;;16.17;10.48;;;11.10;99.90;;;;;;4155180;28;20034;-66
2021/04/19 09:59:28;;;;;;;13.60;9.90;;;11.10;99.90;;;;;;4155123;28;20048;-66
2021/04/19 10:01:30;;;;;;;13.98;10.43;;;11.10;99.90;;;;;;4154996;28;20025;-66
2021/04/19 10:03:33;;;;;;;13.73;10.00;;;11.20;99.90;;;;;;4155002;28;20046;-66
2021/04/19 10:05:36;;;;;;;14.68;9.30;;;11.20;99.90;;;;;;4155127;28;20330;-66
2021/04/19 10:07:41;;;;;;;15.45;10.45;;;11.20;99.90;;;;;;4153637;28;20478;-66
2021/04/19 10:09:44;;;;;;;15.73;11.18;;;11.30;99.90;;;;;;4156271;28;20149;-66
2021/04/19 10:11:49;;;;;;;15.10;10.85;;;11.20;99.90;;;;;;4156239;28;20030;-66
2021/04/19 10:13:50;;;;;;;14.13;10.45;;;11.30;99.90;;;;;;4153707;28;20037;-66
2021/04/19 10:16:01;;;;;;;16.42;12.02;;;11.30;99.90;;;;;;4157838;28;20065;-66
2021/04/19 10:18:11;;;;;;;15.82;11.73;;;11.30;99.90;;;;;;4151832;28;20782;-66
2021/04/19 10:20:18;;;;;;;14.80;10.57;;;11.30;99.90;;;;;;4154599;28;20046;-66
2021/04/19 10:22:18;;;;;;;14.77;10.60;;;11.40;99.90;;;;;;4153923;28;20087;-66
2021/04/19 10:24:19;;;;;;;16.17;11.65;;;11.40;99.90;;;;;;4154049;28;20482;-66
2021/04/19 10:26:31;;;;;;;15.20;11.25;;;11.40;99.90;;;;;;4153828;28;20037;-66
2021/04/19 10:28:36;;;;;;;15.25;10.65;;;11.40;99.90;;;;;;4181898;28;20695;-66
2021/04/19 10:30:37;;;;;;;15.48;11.68;;;11.40;99.90;;;;;;4154715;28;20045;-66
2021/04/19 10:32:37;;;;;;;14.75;10.88;;;11.50;99.90;;;;;;4153752;28;20071;-66
2021/04/19 10:34:38;;;;;;;16.60;11.77;;;11.40;99.90;;;;;;4151089;28;20080;-66
2021/04/19 10:36:44;;;;;;;17.25;11.77;;;11.50;99.90;;;;;;4154295;28;20037;-66